Time;durP1;ratioP1;P1;durP2;ratioP2;P2;SDS_P1;SDS_P2;PMS_P1;PMS_P2;Temp;Humidity;BMP_temperature;BMP_pressure;BME280_temperature;BME280_humidity;BME280_pressure;Samples;Min_cycle;Max_cycle;Signal;HPM_P1;HPM_P2
2022/11/17 00:00:27;;;;;;;30.23;23.75;;;;;;;13.78;75.52;99969.91;4969536;28;103214;-49
2022/11/17 00:02:53;;;;;;;28.45;24.00;;;;;;;13.77;75.29;99974.53;4958211;28;102484;-49
2022/11/17 00:05:20;;;;;;;28.88;23.75;;;;;;;13.79;75.33;99976.97;4962903;28;104152;-49
2022/11/17 00:07:49;;;;;;;28.50;24.58;;;;;;;13.78;75.13;99969.91;4962550;28;102330;-49
2022/11/17 00:10:16;;;;;;;30.83;24.53;;;;;;;13.79;75.10;99968.78;4965935;28;102079;-49
2022/11/17 00:15:29;;;;;;;33.50;26.02;;;;;;;13.78;75.52;99972.63;4961016;28;103941;-49
2022/11/17 00:21:17;;;;;;;32.87;25.97;;;;;;;13.77;75.38;99969.06;4958576;28;102380;-49
2022/11/17 00:23:46;;;;;;;29.67;23.85;;;;;;;13.78;75.18;99976.19;4967184;28;102579;-49
2022/11/17 00:26:14;;;;;;;30.10;22.77;;;;;;;13.78;75.00;99969.91;4960505;28;104101;-48
2022/11/17 00:28:41;;;;;;;30.75;23.13;;;;;;;13.77;75.18;99973.72;4976173;28;102368;-49
2022/11/17 00:34:14;;;;;;;29.90;24.50;;;;;;;13.76;75.34;99961.19;4977676;28;102221;-49
2022/11/17 00:36:42;;;;;;;30.58;24.25;;;;;;;13.77;75.43;99957.31;4960187;28;104186;-49
2022/11/17 00:39:11;;;;;;;27.40;23.75;;;;;;;13.80;75.22;99956.72;4965255;28;102592;-49
2022/11/17 00:41:40;;;;;;;30.88;24.58;;;;;;;13.77;75.23;99965.53;4959264;28;102263;-49
2022/11/17 00:44:08;;;;;;;30.85;24.17;;;;;;;13.79;75.16;99968.78;4959729;28;103597;-49
2022/11/17 00:46:36;;;;;;;31.15;25.17;;;;;;;13.77;75.30;99968.25;4957075;28;103927;-49
2022/11/17 00:49:03;;;;;;;32.88;25.60;;;;;;;13.77;75.27;99963.59;4961606;28;102238;-49
2022/11/17 00:51:30;;;;;;;31.33;23.75;;;;;;;13.78;75.29;99958.97;4963240;28;102611;-49
2022/11/17 00:53:56;;;;;;;30.70;24.50;;;;;;;13.79;75.39;99960.56;4959866;28;102326;-49
2022/11/17 00:56:26;;;;;;;32.08;27.27;;;;;;;13.77;75.09;99957.31;4956280;28;103882;-48
2022/11/17 00:58:53;;;;;;;32.72;26.88;;;;;;;13.79;75.30;99966.03;4959593;28;102329;-49
2022/11/17 01:01:20;;;;;;;30.65;25.48;;;;;;;13.77;75.48;99965.53;4962391;28;102375;-49
2022/11/17 01:03:47;;;;;;;29.73;23.48;;;;;;;13.77;75.44;99974.53;4964301;28;102195;-49
2022/11/17 01:06:16;;;;;;;31.33;24.17;;;;;;;13.77;75.41;99968.25;4960176;28;104218;-49
2022/11/17 01:08:44;;;;;;;30.70;23.40;;;;;;;13.77;75.11;99962.78;4966643;28;102299;-48
2022/11/17 01:11:12;;;;;;;31.05;25.15;;;;;;;13.78;75.16;99958.97;4968420;28;102678;-49
2022/11/17 01:13:42;;;;;;;30.10;24.25;;;;;;;13.79;75.02;99960.56;4974922;28;102545;-48
2022/11/17 01:16:11;;;;;;;30.50;24.67;;;;;;;13.78;75.28;99953.50;4967331;28;104198;-48
2022/11/17 01:18:39;;;;;;;29.73;25.23;;;;;;;13.79;75.29;99960.56;4976541;28;102420;-49
2022/11/17 01:21:08;;;;;;;32.35;24.67;;;;;;;13.79;75.63;99966.03;4966416;28;102343;-48
2022/11/17 01:23:37;;;;;;;30.70;24.75;;;;;;;13.78;75.16;99972.63;4964876;28;102488;-48
2022/11/17 01:26:06;;;;;;;28.05;24.67;;;;;;;13.78;75.30;99972.63;4965354;28;104592;-49
2022/11/17 01:28:33;;;;;;;29.05;25.70;;;;;;;13.80;75.16;99973.13;4961671;28;102066;-49
2022/11/17 01:31:04;;;;;;;30.58;25.05;;;;;;;13.78;75.36;99972.63;4962094;28;102893;-48
2022/11/17 01:33:32;;;;;;;31.85;25.67;;;;;;;13.77;75.29;99982.75;4957526;28;102372;-49
2022/11/17 01:36:04;;;;;;;30.98;24.27;;;;;;;13.77;75.48;99971.81;4971127;28;104070;-49
2022/11/17 01:38:31;;;;;;;30.88;24.60;;;;;;;13.77;75.47;99973.72;4957569;28;102052;-49
2022/11/17 01:40:58;;;;;;;29.98;25.63;;;;;;;13.78;75.43;99969.91;4959319;28;102056;-48
2022/11/17 01:43:40;;;;;;;31.95;22.80;;;;;;;13.78;75.13;99978.09;4977287;28;102316;-48
2022/11/17 01:46:19;;;;;;;30.58;25.60;;;;;;;13.78;75.25;99981.66;4966154;28;103873;-49
2022/11/17 01:48:48;;;;;;;32.85;25.33;;;;;;;13.79;75.43;99974.25;4962261;28;102419;-49
2022/11/17 01:51:15;;;;;;;30.30;24.20;;;;;;;13.78;75.27;99970.72;4963790;28;102600;-49
2022/11/17 01:53:44;;;;;;;30.20;24.17;;;;;;;13.77;75.25;99971.00;4975763;28;102193;-50
2022/11/17 01:56:17;;;;;;;32.55;25.08;;;;;;;13.78;75.01;99959.78;4958769;28;103969;-49
2022/11/17 01:58:50;;;;;;;32.50;24.77;;;;;;;13.76;75.24;99962.00;4963695;28;102268;-49
2022/11/17 02:01:18;;;;;;;33.78;24.63;;;;;;;13.77;75.32;99960.06;4965618;28;102627;-50
2022/11/17 02:03:48;;;;;;;32.45;27.20;;;;;;;13.76;75.12;99952.97;4961093;28;102608;-49
2022/11/17 02:06:19;;;;;;;33.42;26.02;;;;;;;13.77;75.36;99962.78;4963045;28;104356;-49
2022/11/17 02:08:48;;;;;;;29.15;23.80;;;;;;;13.77;75.46;99951.84;4961071;28;102339;-49
2022/11/17 02:11:18;;;;;;;30.88;24.50;;;;;;;13.77;75.25;99946.38;4963116;28;102161;-49
2022/11/17 02:13:46;;;;;;;30.42;25.60;;;;;;;13.77;75.30;99943.66;4964562;28;102828;-49
2022/11/17 02:16:14;;;;;;;30.33;24.98;;;;;;;13.78;75.19;99943.34;4961579;28;103979;-49
2022/11/17 02:18:44;;;;;;;30.75;25.30;;;;;;;13.77;75.37;99943.66;4967932;28;102529;-48
2022/11/17 02:21:40;;;;;;;31.48;26.30;;;;;;;13.77;75.08;99940.91;4964959;28;102267;-49
2022/11/17 02:24:30;;;;;;;33.47;24.60;;;;;;;13.78;75.24;99942.56;4959185;28;102338;-49
2022/11/17 02:27:37;;;;;;;30.75;26.48;;;;;;;13.77;75.34;99946.38;4966748;28;104357;-48
2022/11/17 02:30:06;;;;;;;31.55;26.25;;;;;;;13.75;75.17;99941.25;4961879;28;102329;-49
2022/11/17 02:32:44;;;;;;;30.92;25.60;;;;;;;13.77;75.57;99943.66;4966731;28;102097;-49
2022/11/17 02:35:19;;;;;;;29.30;25.23;;;;;;;13.76;75.26;99945.59;4963484;28;102132;-49
2022/11/17 02:37:54;;;;;;;32.40;26.35;;;;;;;13.76;75.25;99934.66;4965050;28;103958;-49
2022/11/17 02:40:26;;;;;;;30.35;23.75;;;;;;;13.78;75.18;99937.09;4963094;28;103206;-48
2022/11/17 02:45:50;;;;;;;32.13;26.50;;;;;;;13.77;75.50;99929.97;4965354;28;102279;-49
2022/11/17 02:48:25;;;;;;;29.38;24.30;;;;;;;13.78;75.17;99931.63;4961759;28;104006;-49
2022/11/17 02:50:54;;;;;;;32.65;26.50;;;;;;;13.77;75.34;99924.50;4961328;28;102825;-49
2022/11/17 02:53:23;;;;;;;35.28;26.80;;;;;;;13.76;75.27;99920.16;4958782;28;102349;-49
2022/11/17 02:55:50;;;;;;;30.37;24.57;;;;;;;13.76;75.18;99917.44;4961705;28;102741;-48
2022/11/17 02:58:19;;;;;;;30.33;25.38;;;;;;;13.77;75.57;99919.03;4969028;28;104820;-49
2022/11/17 03:01:04;;;;;;;33.58;26.90;;;;;;;13.76;75.13;99922.91;4963285;28;102657;-49
2022/11/17 03:03:43;;;;;;;32.90;26.77;;;;;;;13.76;75.17;99917.44;4966798;28;101942;-48
2022/11/17 03:06:22;;;;;;;31.55;25.55;;;;;;;13.77;75.26;99910.84;4960006;28;102591;-49
2022/11/17 03:08:58;;;;;;;32.38;25.80;;;;;;;13.75;75.32;99922.09;4965064;28;107792;-49
2022/11/17 03:11:31;;;;;;;30.13;26.70;;;;;;;13.74;75.20;99915.03;4956636;28;102250;-49
2022/11/17 03:14:07;;;;;;;34.63;27.20;;;;;;;13.75;75.33;99915.81;4955454;28;101934;-49
2022/11/17 03:16:37;;;;;;;32.28;27.25;;;;;;;13.76;75.36;99909.22;4961625;28;102619;-49
2022/11/17 03:19:10;;;;;;;31.70;26.20;;;;;;;13.74;75.11;99903.25;4966629;28;104004;-49
2022/11/17 03:21:44;;;;;;;31.33;26.33;;;;;;;13.76;75.25;99906.50;4960381;28;102711;-49
2022/11/17 03:24:15;;;;;;;33.70;28.90;;;;;;;13.74;75.13;99914.19;4956078;28;102371;-49
2022/11/17 03:26:44;;;;;;;32.85;25.65;;;;;;;13.74;75.26;99908.72;4966483;28;103122;-48
2022/11/17 03:29:16;;;;;;;33.85;28.50;;;;;;;13.77;75.10;99910.84;4966878;28;104060;-49
2022/11/17 03:31:46;;;;;;;31.25;25.35;;;;;;;13.77;75.14;99913.56;4963787;28;102266;-49
2022/11/17 03:34:15;;;;;;;32.15;27.45;;;;;;;13.75;75.34;99918.56;4960908;28;102424;-49
2022/11/17 03:36:47;;;;;;;33.03;27.27;;;;;;;13.74;75.15;99923.22;4964362;28;102286;-48
2022/11/17 03:39:22;;;;;;;32.05;26.65;;;;;;;13.74;75.25;99919.66;4969185;28;104199;-49
2022/11/17 03:41:54;;;;;;;30.73;25.90;;;;;;;13.74;75.35;99906.00;4965369;28;102386;-48
2022/11/17 03:44:25;;;;;;;34.03;28.00;;;;;;;13.74;75.33;99904.09;4974461;28;102173;-49
2022/11/17 03:46:54;;;;;;;34.45;27.45;;;;;;;13.75;75.33;99904.88;4962512;28;102341;-49
2022/11/17 03:49:29;;;;;;;30.60;26.77;;;;;;;13.73;75.03;99912.59;4972182;28;103974;-48
2022/11/17 03:51:56;;;;;;;34.38;28.05;;;;;;;13.74;75.05;99914.19;4975320;28;102633;-48
2022/11/17 03:54:23;;;;;;;33.25;26.63;;;;;;;13.74;75.11;99897.78;4966141;28;102287;-49
2022/11/17 03:56:58;;;;;;;32.67;27.20;;;;;;;13.72;75.14;99895.38;4961590;28;102620;-49
2022/11/17 03:59:31;;;;;;;36.17;27.65;;;;;;;13.76;74.98;99901.03;4966249;28;108169;-49
2022/11/17 04:01:58;;;;;;;35.88;27.20;;;;;;;13.74;75.24;99895.06;4960575;28;102893;-49
2022/11/17 04:05:04;;;;;;;36.47;28.13;;;;;;;13.74;75.15;99908.72;4975549;28;102621;-49
2022/11/17 04:07:10;;;;;;;30.98;26.65;;;;;;;13.73;75.30;99912.59;4968016;28;102503;-49
2022/11/17 04:09:38;;;;;;;33.70;26.52;;;;;;;13.73;75.31;99915.31;4965017;28;104188;-49
2022/11/17 04:17:43;;;;;;;31.92;26.83;;;;;;;13.75;75.24;99916.63;4955195;28;102794;-49
2022/11/17 04:20:11;;;;;;;35.67;27.98;;;;;;;13.73;75.21;99904.38;4964583;28;103924;-49
2022/11/17 04:22:37;;;;;;;34.95;27.50;;;;;;;13.72;75.18;99900.03;4970868;28;102566;-48
2022/11/17 04:25:04;;;;;;;31.15;25.90;;;;;;;13.72;75.30;99900.03;4967969;28;102506;-49
2022/11/17 04:30:17;;;;;;;36.47;27.27;;;;;;;13.74;75.36;99892.31;4959349;28;104062;-48
2022/11/17 04:32:44;;;;;;;31.85;24.80;;;;;;;13.74;75.39;99903.25;4965753;28;102285;-49
2022/11/17 04:35:11;;;;;;;34.45;27.05;;;;;;;13.73;75.29;99893.44;4958928;28;103532;-49
2022/11/17 04:37:37;;;;;;;35.83;28.60;;;;;;;13.74;75.12;99903.25;4963810;28;102322;-49
2022/11/17 04:40:05;;;;;;;34.70;27.98;;;;;;;13.72;75.34;99900.03;4971861;28;104180;-49
2022/11/17 04:42:31;;;;;;;32.88;27.10;;;;;;;13.74;75.13;99892.31;4964279;28;102848;-49
2022/11/17 04:44:58;;;;;;;32.42;27.67;;;;;;;13.73;75.17;99886.03;4957463;28;102235;-49
2022/11/17 04:47:26;;;;;;;35.72;27.77;;;;;;;13.73;75.34;99879.78;4958956;28;102363;-49
2022/11/17 04:49:53;;;;;;;32.67;27.42;;;;;;;13.72;75.35;99878.16;4957277;28;104088;-49
2022/11/17 04:52:19;;;;;;;32.00;25.33;;;;;;;13.73;75.32;99877.84;4961668;28;102841;-49
2022/11/17 04:54:46;;;;;;;34.63;28.30;;;;;;;13.74;75.18;99886.84;4969922;28;102454;-49
2022/11/17 04:57:14;;;;;;;36.47;27.60;;;;;;;13.72;75.02;99884.44;4969731;28;102197;-49
2022/11/17 04:59:40;;;;;;;32.65;28.00;;;;;;;13.73;75.27;99874.31;4975885;28;103952;-49
2022/11/17 05:02:07;;;;;;;33.50;27.10;;;;;;;13.72;75.05;99872.69;4962825;28;102563;-49
2022/11/17 05:07:20;;;;;;;32.05;27.08;;;;;;;13.72;75.15;99894.56;4967134;28;103187;-49
2022/11/17 05:09:46;;;;;;;35.28;27.75;;;;;;;13.72;75.03;99889.91;4956727;28;103786;-49
2022/11/17 05:14:58;;;;;;;33.80;27.17;;;;;;;13.72;75.14;99894.56;4957617;28;102027;-48
2022/11/17 05:17:29;;;;;;;36.65;29.55;;;;;;;13.71;75.07;99896.50;4961733;28;102518;-48
2022/11/17 05:19:57;;;;;;;36.33;29.73;;;;;;;13.72;75.29;99889.09;4970580;28;103925;-49
2022/11/17 05:25:09;;;;;;;36.95;28.63;;;;;;;13.73;74.91;99888.78;4962528;28;102059;-48
2022/11/17 05:27:37;;;;;;;37.15;28.90;;;;;;;13.71;75.12;99888.31;4963938;28;102175;-49
2022/11/17 05:30:06;;;;;;;36.00;27.13;;;;;;;13.72;74.94;99891.84;4961451;28;103994;-48
2022/11/17 05:32:33;;;;;;;36.47;28.25;;;;;;;13.72;75.23;99884.44;4963330;28;102088;-49
2022/11/17 05:35:00;;;;;;;36.85;27.83;;;;;;;13.70;75.03;99882.03;4970863;28;102432;-49
2022/11/17 05:37:27;;;;;;;33.78;28.95;;;;;;;13.73;75.08;99879.78;4975408;28;103043;-48
2022/11/17 05:39:53;;;;;;;35.90;27.92;;;;;;;13.72;75.25;99878.16;4961294;28;103930;-49
2022/11/17 05:42:20;;;;;;;35.55;28.20;;;;;;;13.74;75.04;99884.13;4956460;28;102699;-48
2022/11/17 05:44:47;;;;;;;37.47;30.00;;;;;;;13.72;75.19;99878.16;4960392;28;102257;-49
2022/11/17 05:47:13;;;;;;;35.50;27.27;;;;;;;13.73;75.12;99866.09;4964225;28;102358;-48
2022/11/17 05:49:40;;;;;;;36.20;27.45;;;;;;;13.73;74.78;99877.03;4962546;28;104054;-50
2022/11/17 05:52:08;;;;;;;35.15;26.60;;;;;;;13.73;75.21;99877.03;4967537;28;102501;-48
2022/11/17 05:54:36;;;;;;;34.90;27.35;;;;;;;13.72;75.23;99859.81;4968427;28;102201;-49
2022/11/17 05:57:07;;;;;;;35.85;27.83;;;;;;;13.73;75.00;99855.16;4957717;28;102748;-50
2022/11/17 05:59:38;;;;;;;37.40;29.02;;;;;;;13.70;75.29;99851.94;4958985;28;104068;-50
2022/11/17 06:02:09;;;;;;;35.47;27.40;;;;;;;13.73;75.25;99847.75;4969737;28;102224;-50
2022/11/17 06:04:38;;;;;;;33.90;27.67;;;;;;;13.69;75.22;99842.13;4960186;28;102286;-49
2022/11/17 06:07:04;;;;;;;37.92;29.73;;;;;;;13.70;75.09;99843.75;4968852;28;102554;-50
2022/11/17 06:09:34;;;;;;;35.35;29.70;;;;;;;13.70;75.15;99843.75;4971320;28;103973;-50
2022/11/17 06:12:01;;;;;;;32.97;29.40;;;;;;;13.70;75.17;99835.53;4971490;28;102359;-50
2022/11/17 06:14:27;;;;;;;35.05;28.33;;;;;;;13.69;75.10;99842.13;4961296;28;102037;-50
2022/11/17 06:16:59;;;;;;;35.13;27.90;;;;;;;13.72;75.03;99845.34;4958905;28;102185;-50
2022/11/17 06:19:30;;;;;;;36.65;27.65;;;;;;;13.70;74.91;99846.47;4964479;28;103926;-49
2022/11/17 06:21:57;;;;;;;34.00;27.30;;;;;;;13.69;75.08;99852.25;4961221;28;102493;-50
2022/11/17 06:24:24;;;;;;;36.30;29.50;;;;;;;13.70;74.93;99849.22;4964634;28;102142;-50
2022/11/17 06:26:52;;;;;;;32.80;27.20;;;;;;;13.68;75.04;99845.16;4965914;28;102471;-50
2022/11/17 06:29:19;;;;;;;35.75;28.40;;;;;;;13.70;75.01;99853.84;4961392;28;104643;-50
2022/11/17 06:31:46;;;;;;;35.55;28.17;;;;;;;13.70;75.10;99857.41;4967750;28;102347;-50
2022/11/17 06:34:13;;;;;;;36.45;27.20;;;;;;;13.69;75.00;99850.31;4960785;28;102355;-49
2022/11/17 06:36:40;;;;;;;35.85;28.02;;;;;;;13.70;75.01;99849.22;4965357;28;102432;-50
2022/11/17 06:39:06;;;;;;;35.15;26.15;;;;;;;13.69;74.92;99850.31;4960163;28;103815;-50
2022/11/17 06:41:32;;;;;;;35.42;28.67;;;;;;;13.69;74.81;99836.66;4964966;28;102402;-50
2022/11/17 06:44:00;;;;;;;36.35;28.58;;;;;;;13.68;74.99;99839.69;4962345;28;102512;-50
2022/11/17 06:46:36;;;;;;;39.80;29.10;;;;;;;13.68;74.86;99829.56;4961849;28;102202;-50
2022/11/17 06:49:04;;;;;;;36.90;29.58;;;;;;;13.68;74.74;99824.09;4962639;28;103792;-50
2022/11/17 06:51:31;;;;;;;38.17;30.57;;;;;;;13.70;74.83;99819.13;4961909;28;102314;-50
2022/11/17 06:53:58;;;;;;;36.25;28.58;;;;;;;13.69;74.83;99814.78;4956826;28;102571;-50
2022/11/17 06:56:24;;;;;;;37.78;29.63;;;;;;;13.69;74.85;99809.31;4959063;28;102667;-50
2022/11/17 06:58:52;;;;;;;37.85;30.40;;;;;;;13.68;74.87;99799.50;4973670;28;103999;-50
2022/11/17 07:01:21;;;;;;;37.78;29.27;;;;;;;13.69;74.61;99781.16;4973749;28;102572;-50
2022/11/17 07:03:48;;;;;;;41.63;31.58;;;;;;;13.66;74.72;99790.78;4966616;28;102335;-50
2022/11/17 07:06:17;;;;;;;41.15;31.10;;;;;;;13.67;74.58;99789.69;4960319;28;102385;-50
2022/11/17 07:08:44;;;;;;;39.03;30.17;;;;;;;13.68;74.90;99790.50;4954712;28;103998;-50
2022/11/17 07:11:12;;;;;;;46.20;32.33;;;;;;;13.69;74.52;99801.09;4965641;28;102274;-50
2022/11/17 07:13:42;;;;;;;42.00;31.38;;;;;;;13.68;74.51;99794.03;4964123;28;102138;-50
2022/11/17 07:16:12;;;;;;;45.30;32.47;;;;;;;13.68;74.81;99790.50;4960723;28;102576;-50
2022/11/17 07:18:41;;;;;;;43.53;31.92;;;;;;;13.67;74.73;99778.75;4955080;28;103980;-50
2022/11/17 07:21:10;;;;;;;40.78;31.95;;;;;;;13.67;74.69;99776.00;4962501;28;102550;-50
2022/11/17 07:23:38;;;;;;;42.33;31.02;;;;;;;13.67;74.64;99761.53;4966084;28;102517;-51
2022/11/17 07:26:06;;;;;;;39.03;31.17;;;;;;;13.68;74.81;99763.94;4973174;28;102566;-50
2022/11/17 07:28:34;;;;;;;42.38;29.92;;;;;;;13.68;74.75;99747.53;4961548;28;104372;-50
2022/11/17 07:31:01;;;;;;;43.45;31.40;;;;;;;13.68;74.71;99750.28;4963712;28;104904;-50
2022/11/17 07:33:28;;;;;;;45.53;31.95;;;;;;;13.68;74.79;99753.00;4963788;28;102100;-50
2022/11/17 07:36:01;;;;;;;36.58;30.48;;;;;;;13.69;74.70;99748.34;4962261;28;102971;-50
2022/11/17 07:38:30;;;;;;;41.08;31.40;;;;;;;13.68;74.81;99744.81;4963179;28;103942;-50
2022/11/17 07:40:57;;;;;;;40.40;30.95;;;;;;;13.69;74.94;99754.63;4961277;28;102146;-50
2022/11/17 07:43:23;;;;;;;42.92;31.83;;;;;;;13.69;74.88;99749.16;4960444;28;102303;-50
2022/11/17 11:00:36;;;;;;;49.38;34.60;;;;;;;13.46;74.93;99477.03;5025747;27;102256;-52
2022/11/17 11:03:05;;;;;;;45.70;33.15;;;;;;;13.48;74.62;99472.03;5011921;28;102102;-52
2022/11/17 11:05:32;;;;;;;46.50;34.55;;;;;;;13.47;74.58;99467.69;4990923;28;103940;-51
2022/11/17 11:08:20;;;;;;;48.88;36.20;;;;;;;13.50;74.61;99472.53;4980952;28;102044;-51
2022/11/17 11:10:51;;;;;;;54.10;36.97;;;;;;;13.51;74.74;99471.41;4984162;28;102546;-51
2022/11/17 11:13:25;;;;;;;48.88;35.58;;;;;;;13.52;74.75;99469.47;4993021;28;102201;-51
2022/11/17 11:15:53;;;;;;;47.53;35.47;;;;;;;13.50;74.56;99456.13;4992344;28;104018;-52
2022/11/17 11:18:20;;;;;;;48.85;35.85;;;;;;;13.52;74.44;99455.78;4998277;28;102183;-51
2022/11/17 11:20:58;;;;;;;49.50;36.83;;;;;;;13.53;74.28;99449.22;4987747;28;102333;-51
2022/11/17 11:23:36;;;;;;;47.25;37.60;;;;;;;13.53;74.68;99441.03;4987912;28;102356;-51
2022/11/17 11:26:15;;;;;;;49.05;36.88;;;;;;;13.51;74.60;99430.41;4988776;28;104190;-51
2022/11/17 11:28:53;;;;;;;46.30;37.00;;;;;;;13.50;74.56;99426.06;4989994;28;102458;-51
2022/11/17 11:31:27;;;;;;;48.10;37.13;;;;;;;13.51;74.60;99427.66;4989301;28;102330;-51
2022/11/17 11:34:05;;;;;;;53.88;38.17;;;;;;;13.54;74.70;99415.28;4990188;28;102603;-51
2022/11/17 11:36:38;;;;;;;47.53;34.47;;;;;;;13.51;74.72;99402.28;4985024;28;103964;-51
2022/11/17 11:39:15;;;;;;;48.78;36.30;;;;;;;13.52;74.62;99404.66;4987550;28;102351;-51
2022/11/17 11:41:53;;;;;;;44.40;36.75;;;;;;;13.52;74.68;99401.94;4978327;28;102633;-51
2022/11/17 11:44:35;;;;;;;49.30;37.67;;;;;;;13.52;74.58;99382.81;4982251;28;102797;-51
2022/11/17 11:47:18;;;;;;;50.10;37.78;;;;;;;13.53;74.50;99378.97;4988980;28;103998;-51
2022/11/17 11:49:50;;;;;;;51.35;38.42;;;;;;;13.52;74.84;99369.13;4996566;28;102550;-51
2022/11/17 11:52:20;;;;;;;49.72;35.55;;;;;;;13.54;74.71;99368.81;5002926;28;102504;-51
2022/11/17 11:54:51;;;;;;;45.17;35.50;;;;;;;13.53;74.58;99354.38;4990695;28;102197;-52
2022/11/17 11:57:24;;;;;;;47.00;35.80;;;;;;;13.53;74.60;99354.38;4988753;28;103957;-51
2022/11/17 11:59:55;;;;;;;51.67;38.40;;;;;;;13.52;74.67;99346.47;4987232;28;102399;-51
2022/11/17 12:02:32;;;;;;;46.42;35.40;;;;;;;13.50;74.47;99344.06;4978192;28;102014;-51
2022/11/17 12:05:07;;;;;;;48.03;38.08;;;;;;;13.52;74.66;99339.06;4976603;28;102529;-51
2022/11/17 12:07:41;;;;;;;50.75;38.88;;;;;;;13.51;74.71;99325.75;4977738;28;103722;-51
2022/11/17 12:23:44;;;;;;;68.50;61.58;;;;;;;13.50;74.61;99275.75;5052374;27;102258;-52
2022/11/17 12:26:22;;;;;;;49.92;42.63;;;;;;;13.50;74.90;99269.47;5025173;27;102617;-51
2022/11/17 12:29:32;;;;;;;48.10;40.80;;;;;;;13.52;74.62;99259.00;4987304;28;103683;-51
2022/11/17 12:32:01;;;;;;;44.75;39.08;;;;;;;13.51;74.74;99266.41;4992181;28;102101;-52
2022/11/17 12:34:32;;;;;;;46.85;39.13;;;;;;;13.50;74.78;99264.81;4991397;28;102614;-51
2022/11/17 12:37:26;;;;;;;51.95;42.45;;;;;;;13.48;74.58;99261.59;4993277;28;102387;-51
2022/11/17 12:40:02;;;;;;;48.80;40.65;;;;;;;13.49;74.51;99255.03;4984115;28;103946;-51
2022/11/17 12:42:30;;;;;;;48.45;39.58;;;;;;;13.46;74.72;99252.94;4977195;28;102292;-51
2022/11/17 12:45:08;;;;;;;47.58;37.28;;;;;;;13.45;74.82;99237.66;4981295;28;102254;-51
2022/11/17 12:47:36;;;;;;;48.50;39.53;;;;;;;13.46;74.86;99239.28;4993110;28;102493;-51
2022/11/17 12:50:26;;;;;;;51.03;38.80;;;;;;;13.48;74.68;99250.66;4991664;28;103815;-51
2022/11/17 12:53:14;;;;;;;48.70;38.65;;;;;;;13.51;74.57;99262.88;4991663;28;102578;-51
2022/11/17 12:56:07;;;;;;;51.40;40.38;;;;;;;13.51;74.57;99249.22;4947988;28;102180;-51
2022/11/17 12:58:47;;;;;;;44.25;35.97;;;;;;;13.50;74.61;99248.41;4992850;28;102069;-51
2022/11/17 13:01:21;;;;;;;46.13;38.38;;;;;;;13.48;74.52;99245.19;4991941;28;104431;-51
2022/11/17 13:03:53;;;;;;;44.10;38.90;;;;;;;13.50;74.66;99248.41;4990202;28;102468;-51
2022/11/17 15:42:05;;;;;;;48.60;44.38;;;;;;;13.30;75.20;99238.19;5045876;27;102086;-53
2022/11/17 15:44:32;;;;;;;44.17;39.90;;;;;;;13.36;75.29;99231.41;5025239;28;102746;-53
2022/11/17 15:46:59;;;;;;;40.00;36.42;;;;;;;13.40;75.09;99230.44;5025289;28;104035;-53
2022/11/17 15:49:25;;;;;;;38.30;34.75;;;;;;;13.40;74.86;99226.91;5027504;28;102748;-53
2022/11/17 15:51:52;;;;;;;36.30;32.55;;;;;;;13.42;74.86;99227.38;5028439;28;102417;-53
2022/11/17 15:54:19;;;;;;;34.53;30.60;;;;;;;13.41;74.68;99223.84;5029864;28;102573;-53
2022/11/17 15:56:45;;;;;;;31.27;27.98;;;;;;;13.44;74.64;99225.13;5027859;28;104220;-53
2022/11/17 15:59:13;;;;;;;31.17;27.77;;;;;;;13.45;74.50;99223.97;5025899;28;102432;-53
2022/11/17 16:01:40;;;;;;;30.77;27.45;;;;;;;13.45;74.50;99223.97;5028923;28;102420;-53
2022/11/17 16:04:08;;;;;;;31.13;27.85;;;;;;;13.47;74.63;99227.19;5025151;28;102430;-53
2022/11/17 16:06:38;;;;;;;30.77;26.60;;;;;;;13.46;74.49;99223.66;5025667;28;104092;-53
2022/11/17 16:09:05;;;;;;;30.77;27.63;;;;;;;13.49;74.37;99230.41;5012308;28;102423;-53
2022/11/17 16:11:32;;;;;;;30.27;26.92;;;;;;;13.50;74.35;99242.94;5009068;28;102438;-53
2022/11/17 16:14:00;;;;;;;28.77;25.67;;;;;;;13.51;74.56;99249.22;5020754;28;102302;-53
2022/11/17 16:16:31;;;;;;;30.80;24.65;;;;;;;13.49;74.54;99235.88;5029042;28;104022;-53
2022/11/17 16:18:57;;;;;;;29.17;26.15;;;;;;;13.52;74.21;99235.22;5029986;28;102540;-53
2022/11/17 16:21:24;;;;;;;29.25;26.38;;;;;;;13.51;74.23;99244.53;5028226;28;102191;-53
2022/11/17 16:23:53;;;;;;;30.08;25.83;;;;;;;13.53;74.46;99239.56;5023941;28;102210;-53
2022/11/17 16:41:35;;;;;;;31.08;24.90;;;;;;;13.55;74.40;99261.88;4950780;28;102828;-53
2022/11/17 16:44:05;;;;;;;28.00;25.05;;;;;;;13.54;74.53;99265.75;5005384;28;102401;-53
2022/11/17 16:46:31;;;;;;;30.60;25.63;;;;;;;13.54;74.53;99265.75;5000706;28;102439;-53
2022/11/17 17:30:36;;;;;;;24.38;20.38;;;;;;;13.57;74.71;99319.78;4993824;28;102385;-53
2022/11/17 17:33:02;;;;;;;21.27;19.07;;;;;;;13.57;74.73;99325.25;4997237;28;102645;-53
2022/11/17 17:35:32;;;;;;;22.27;20.05;;;;;;;13.58;74.73;99329.56;4996553;28;103997;-53
2022/11/17 17:37:58;;;;;;;22.73;20.40;;;;;;;13.58;74.57;99331.50;4997475;28;102046;-53
2022/11/17 17:40:25;;;;;;;22.73;20.33;;;;;;;13.59;74.57;99327.66;4992661;28;102075;-53
2022/11/17 17:42:52;;;;;;;20.83;18.83;;;;;;;13.59;74.66;99328.44;4998043;28;102232;-52
2022/11/17 17:45:19;;;;;;;21.20;18.98;;;;;;;13.58;74.71;99343.25;4990679;28;104025;-53
2022/11/17 17:47:47;;;;;;;21.10;18.90;;;;;;;13.59;74.71;99339.38;4991163;28;102587;-53
2022/11/17 17:50:13;;;;;;;23.50;21.02;;;;;;;13.60;74.57;99341.00;4998033;28;102462;-53
2022/11/17 17:52:40;;;;;;;22.80;20.30;;;;;;;13.60;74.52;99340.22;4998793;28;102424;-53
2022/11/17 17:55:07;;;;;;;21.55;19.40;;;;;;;13.60;74.57;99351.94;4992738;28;103895;-52
2022/11/17 17:57:34;;;;;;;23.52;19.67;;;;;;;13.59;74.72;99342.09;4991138;28;102176;-52
2022/11/17 18:00:00;;;;;;;22.83;20.48;;;;;;;13.58;74.77;99354.19;4998552;28;102423;-52
2022/11/17 18:02:27;;;;;;;20.65;18.60;;;;;;;13.58;74.74;99354.19;4999062;28;102287;-52
2022/11/17 18:04:54;;;;;;;22.17;19.98;;;;;;;13.57;74.86;99359.97;4994689;28;103873;-52
2022/11/17 18:07:21;;;;;;;22.00;19.70;;;;;;;13.59;74.83;99363.19;4994249;28;102224;-52
2022/11/17 18:09:49;;;;;;;22.38;20.20;;;;;;;13.59;74.69;99368.66;4993064;28;102057;-52
2022/11/17 18:12:16;;;;;;;22.85;20.48;;;;;;;13.58;74.87;99364.31;4995415;28;102204;-52
2022/11/17 18:14:44;;;;;;;23.60;21.27;;;;;;;13.57;74.83;99368.97;4993779;28;104173;-52
2022/11/17 18:17:11;;;;;;;22.00;19.90;;;;;;;13.58;74.66;99376.03;4998316;28;102297;-52
2022/11/17 18:19:38;;;;;;;21.60;19.30;;;;;;;13.57;74.94;99363.50;4995046;28;102271;-52
2022/11/17 18:22:06;;;;;;;21.08;19.00;;;;;;;13.57;74.85;99373.66;4999117;28;103162;-52
2022/11/17 18:24:33;;;;;;;21.63;19.60;;;;;;;13.57;74.73;99379.13;4995347;28;104130;-52
2022/11/17 18:26:59;;;;;;;25.67;23.23;;;;;;;13.57;74.71;99379.91;4995563;28;101931;-52
2022/11/17 18:29:26;;;;;;;27.63;25.25;;;;;;;13.58;74.66;99386.97;4998003;28;102160;-52
2022/11/17 18:31:53;;;;;;;24.23;22.17;;;;;;;13.59;74.57;99394.03;4998147;28;102070;-52
2022/11/17 18:34:21;;;;;;;27.33;24.88;;;;;;;13.58;74.89;99400.66;4996763;28;103699;-52
2022/11/17 18:36:48;;;;;;;25.13;23.02;;;;;;;13.59;74.78;99404.97;4997800;28;102459;-52
2022/11/17 18:39:16;;;;;;;25.08;22.77;;;;;;;13.59;74.68;99410.44;4997615;28;102131;-52
2022/11/17 18:41:43;;;;;;;26.92;24.63;;;;;;;13.59;74.59;99426.06;4998576;28;102205;-52
2022/11/17 18:44:11;;;;;;;27.00;24.70;;;;;;;13.58;74.69;99425.25;4993695;28;104067;-52
2022/11/17 18:46:37;;;;;;;27.50;25.10;;;;;;;13.57;74.59;99431.06;4998039;28;102469;-52
2022/11/17 18:49:04;;;;;;;25.27;22.98;;;;;;;13.57;74.61;99440.06;4992221;28;102047;-52
2022/11/17 18:51:33;;;;;;;24.85;22.63;;;;;;;13.56;74.33;99454.84;4995017;28;102329;-52